sensor_id;sensor_type;location;lat;lon;timestamp;P1;durP1;ratioP1;P2;durP2;ratioP2
71773;SDS011;59607;52.130;5.430;2023-07-22T00:02:21;5.25;;;4.45;;
71773;SDS011;59607;52.130;5.430;2023-07-22T00:04:52;6.95;;;5.28;;
71773;SDS011;59607;52.130;5.430;2023-07-22T00:07:24;8.52;;;4.93;;
71773;SDS011;59607;52.130;5.430;2023-07-22T00:09:50;6.60;;;4.60;;
71773;SDS011;59607;52.130;5.430;2023-07-22T00:12:21;5.88;;;4.55;;
71773;SDS011;59607;52.130;5.430;2023-07-22T00:14:51;6.13;;;4.47;;
71773;SDS011;59607;52.130;5.430;2023-07-22T00:17:22;4.50;;;4.10;;
71773;SDS011;59607;52.130;5.430;2023-07-22T00:19:53;6.20;;;4.75;;
71773;SDS011;59607;52.130;5.430;2023-07-22T00:22:20;6.53;;;4.80;;
71773;SDS011;59607;52.130;5.430;2023-07-22T00:24:53;5.28;;;4.38;;
71773;SDS011;59607;52.130;5.430;2023-07-22T00:27:20;5.25;;;4.70;;
71773;SDS011;59607;52.130;5.430;2023-07-22T00:29:56;10.48;;;5.70;;
71773;SDS011;59607;52.130;5.430;2023-07-22T00:32:23;5.53;;;4.95;;
71773;SDS011;59607;52.130;5.430;2023-07-22T00:34:57;9.30;;;4.90;;
71773;SDS011;59607;52.130;5.430;2023-07-22T00:37:24;5.20;;;4.70;;
71773;SDS011;59607;52.130;5.430;2023-07-22T00:40:00;5.65;;;4.80;;
71773;SDS011;59607;52.130;5.430;2023-07-22T00:42:28;6.57;;;5.30;;
71773;SDS011;59607;52.130;5.430;2023-07-22T00:44:58;8.35;;;5.65;;
71773;SDS011;59607;52.130;5.430;2023-07-22T00:47:27;8.67;;;5.50;;
71773;SDS011;59607;52.130;5.430;2023-07-22T00:49:53;6.63;;;5.18;;
71773;SDS011;59607;52.130;5.430;2023-07-22T00:52:28;6.55;;;5.68;;
71773;SDS011;59607;52.130;5.430;2023-07-22T00:54:54;7.95;;;4.93;;
71773;SDS011;59607;52.130;5.430;2023-07-22T00:57:25;7.55;;;5.10;;
71773;SDS011;59607;52.130;5.430;2023-07-22T00:59:55;6.77;;;5.10;;
71773;SDS011;59607;52.130;5.430;2023-07-22T01:02:25;7.47;;;5.18;;
71773;SDS011;59607;52.130;5.430;2023-07-22T01:04:52;5.78;;;5.05;;
71773;SDS011;59607;52.130;5.430;2023-07-22T01:07:18;6.35;;;5.25;;
71773;SDS011;59607;52.130;5.430;2023-07-22T01:09:48;5.65;;;4.90;;
71773;SDS011;59607;52.130;5.430;2023-07-22T01:12:18;8.10;;;5.53;;
71773;SDS011;59607;52.130;5.430;2023-07-22T01:14:46;7.10;;;5.43;;
71773;SDS011;59607;52.130;5.430;2023-07-22T01:17:19;8.07;;;6.00;;
71773;SDS011;59607;52.130;5.430;2023-07-22T01:19:46;6.53;;;5.25;;
71773;SDS011;59607;52.130;5.430;2023-07-22T01:22:16;7.63;;;6.38;;
71773;SDS011;59607;52.130;5.430;2023-07-22T01:24:42;8.17;;;5.47;;
71773;SDS011;59607;52.130;5.430;2023-07-22T01:27:10;6.50;;;5.57;;
71773;SDS011;59607;52.130;5.430;2023-07-22T01:29:41;9.07;;;6.18;;
71773;SDS011;59607;52.130;5.430;2023-07-22T01:32:10;8.60;;;5.75;;
71773;SDS011;59607;52.130;5.430;2023-07-22T01:34:39;7.47;;;6.25;;
71773;SDS011;59607;52.130;5.430;2023-07-22T01:37:08;7.43;;;5.70;;
71773;SDS011;59607;52.130;5.430;2023-07-22T01:39:35;7.68;;;6.35;;
71773;SDS011;59607;52.130;5.430;2023-07-22T01:42:02;9.00;;;6.68;;
71773;SDS011;59607;52.130;5.430;2023-07-22T01:44:33;8.23;;;6.18;;
71773;SDS011;59607;52.130;5.430;2023-07-22T01:47:03;10.18;;;6.28;;
71773;SDS011;59607;52.130;5.430;2023-07-22T01:49:43;11.10;;;6.23;;
71773;SDS011;59607;52.130;5.430;2023-07-22T01:52:28;10.07;;;6.40;;
71773;SDS011;59607;52.130;5.430;2023-07-22T01:54:58;10.25;;;6.85;;
71773;SDS011;59607;52.130;5.430;2023-07-22T01:57:24;7.65;;;6.65;;
71773;SDS011;59607;52.130;5.430;2023-07-22T01:59:51;8.43;;;6.47;;
71773;SDS011;59607;52.130;5.430;2023-07-22T02:02:31;9.00;;;6.20;;
71773;SDS011;59607;52.130;5.430;2023-07-22T02:04:58;10.25;;;7.28;;
71773;SDS011;59607;52.130;5.430;2023-07-22T02:07:25;13.07;;;7.13;;
71773;SDS011;59607;52.130;5.430;2023-07-22T02:09:52;8.38;;;6.32;;
71773;SDS011;59607;52.130;5.430;2023-07-22T02:12:21;8.82;;;6.78;;
71773;SDS011;59607;52.130;5.430;2023-07-22T02:14:51;8.40;;;6.17;;
71773;SDS011;59607;52.130;5.430;2023-07-22T02:17:17;9.85;;;6.80;;
71773;SDS011;59607;52.130;5.430;2023-07-22T02:19:51;10.43;;;7.53;;
71773;SDS011;59607;52.130;5.430;2023-07-22T02:22:17;7.75;;;6.65;;
71773;SDS011;59607;52.130;5.430;2023-07-22T02:24:44;12.02;;;7.05;;
71773;SDS011;59607;52.130;5.430;2023-07-22T02:27:16;8.80;;;6.97;;
71773;SDS011;59607;52.130;5.430;2023-07-22T02:29:43;9.10;;;7.00;;
71773;SDS011;59607;52.130;5.430;2023-07-22T02:32:12;11.05;;;7.78;;
71773;SDS011;59607;52.130;5.430;2023-07-22T02:34:39;9.50;;;6.68;;
71773;SDS011;59607;52.130;5.430;2023-07-22T02:37:05;10.73;;;6.90;;
71773;SDS011;59607;52.130;5.430;2023-07-22T02:39:35;9.57;;;6.87;;
71773;SDS011;59607;52.130;5.430;2023-07-22T02:42:04;8.95;;;6.60;;
71773;SDS011;59607;52.130;5.430;2023-07-22T02:44:33;11.00;;;6.82;;
71773;SDS011;59607;52.130;5.430;2023-07-22T02:47:05;9.15;;;6.78;;
71773;SDS011;59607;52.130;5.430;2023-07-22T02:49:31;10.63;;;6.88;;
71773;SDS011;59607;52.130;5.430;2023-07-22T02:52:01;9.37;;;7.20;;
71773;SDS011;59607;52.130;5.430;2023-07-22T02:54:31;10.07;;;6.35;;
71773;SDS011;59607;52.130;5.430;2023-07-22T02:56:57;10.77;;;7.45;;
71773;SDS011;59607;52.130;5.430;2023-07-22T02:59:37;10.52;;;7.07;;
71773;SDS011;59607;52.130;5.430;2023-07-22T03:02:08;11.57;;;7.88;;
71773;SDS011;59607;52.130;5.430;2023-07-22T03:04:34;11.97;;;7.40;;
71773;SDS011;59607;52.130;5.430;2023-07-22T03:07:00;11.60;;;7.78;;
71773;SDS011;59607;52.130;5.430;2023-07-22T03:09:27;8.32;;;6.90;;
71773;SDS011;59607;52.130;5.430;2023-07-22T03:11:59;9.75;;;7.13;;
71773;SDS011;59607;52.130;5.430;2023-07-22T03:14:26;11.88;;;7.38;;
71773;SDS011;59607;52.130;5.430;2023-07-22T03:16:53;10.37;;;6.57;;
71773;SDS011;59607;52.130;5.430;2023-07-22T03:19:21;11.00;;;7.05;;
71773;SDS011;59607;52.130;5.430;2023-07-22T03:21:48;11.27;;;7.30;;
71773;SDS011;59607;52.130;5.430;2023-07-22T03:24:14;11.25;;;7.68;;
71773;SDS011;59607;52.130;5.430;2023-07-22T03:26:47;9.30;;;6.63;;
71773;SDS011;59607;52.130;5.430;2023-07-22T03:29:13;9.93;;;6.63;;
71773;SDS011;59607;52.130;5.430;2023-07-22T03:31:40;12.00;;;7.55;;
71773;SDS011;59607;52.130;5.430;2023-07-22T03:34:12;11.30;;;7.55;;
71773;SDS011;59607;52.130;5.430;2023-07-22T03:36:39;12.38;;;7.88;;
71773;SDS011;59607;52.130;5.430;2023-07-22T03:39:12;11.45;;;7.95;;
71773;SDS011;59607;52.130;5.430;2023-07-22T03:41:39;11.10;;;7.57;;
71773;SDS011;59607;52.130;5.430;2023-07-22T03:44:05;13.02;;;7.72;;
71773;SDS011;59607;52.130;5.430;2023-07-22T03:46:32;13.13;;;7.93;;
71773;SDS011;59607;52.130;5.430;2023-07-22T03:49:01;11.73;;;8.15;;
71773;SDS011;59607;52.130;5.430;2023-07-22T03:51:33;10.45;;;7.80;;
71773;SDS011;59607;52.130;5.430;2023-07-22T03:54:00;11.77;;;8.10;;
71773;SDS011;59607;52.130;5.430;2023-07-22T03:56:26;12.05;;;8.55;;
71773;SDS011;59607;52.130;5.430;2023-07-22T03:59:03;10.40;;;8.05;;
71773;SDS011;59607;52.130;5.430;2023-07-22T04:01:29;11.45;;;7.63;;
71773;SDS011;59607;52.130;5.430;2023-07-22T04:03:56;12.43;;;8.02;;
71773;SDS011;59607;52.130;5.430;2023-07-22T04:06:35;11.10;;;7.83;;
71773;SDS011;59607;52.130;5.430;2023-07-22T04:09:04;10.38;;;7.70;;
71773;SDS011;59607;52.130;5.430;2023-07-22T04:11:33;12.77;;;7.90;;
71773;SDS011;59607;52.130;5.430;2023-07-22T04:13:59;12.43;;;8.02;;
71773;SDS011;59607;52.130;5.430;2023-07-22T04:16:40;10.98;;;7.82;;
71773;SDS011;59607;52.130;5.430;2023-07-22T04:19:07;10.80;;;8.00;;
71773;SDS011;59607;52.130;5.430;2023-07-22T04:21:34;11.35;;;8.10;;
71773;SDS011;59607;52.130;5.430;2023-07-22T04:24:01;11.63;;;8.27;;
71773;SDS011;59607;52.130;5.430;2023-07-22T04:26:28;11.50;;;8.00;;
71773;SDS011;59607;52.130;5.430;2023-07-22T04:29:03;10.50;;;7.90;;
71773;SDS011;59607;52.130;5.430;2023-07-22T04:31:35;11.80;;;7.77;;
71773;SDS011;59607;52.130;5.430;2023-07-22T04:34:01;12.52;;;7.82;;
71773;SDS011;59607;52.130;5.430;2023-07-22T04:36:28;12.07;;;8.18;;
71773;SDS011;59607;52.130;5.430;2023-07-22T04:38:58;14.23;;;8.30;;
71773;SDS011;59607;52.130;5.430;2023-07-22T04:41:24;12.13;;;8.02;;
71773;SDS011;59607;52.130;5.430;2023-07-22T04:43:51;12.80;;;9.30;;
71773;SDS011;59607;52.130;5.430;2023-07-22T04:46:20;15.50;;;8.45;;
71773;SDS011;59607;52.130;5.430;2023-07-22T04:48:55;14.38;;;9.00;;
71773;SDS011;59607;52.130;5.430;2023-07-22T04:51:30;15.05;;;8.30;;
71773;SDS011;59607;52.130;5.430;2023-07-22T04:53:58;13.98;;;8.68;;
71773;SDS011;59607;52.130;5.430;2023-07-22T04:56:24;16.20;;;9.67;;
71773;SDS011;59607;52.130;5.430;2023-07-22T04:58:54;13.52;;;9.18;;
71773;SDS011;59607;52.130;5.430;2023-07-22T05:01:20;13.07;;;8.07;;
71773;SDS011;59607;52.130;5.430;2023-07-22T05:03:53;14.02;;;8.93;;
71773;SDS011;59607;52.130;5.430;2023-07-22T05:06:24;16.05;;;8.80;;
71773;SDS011;59607;52.130;5.430;2023-07-22T05:08:54;13.60;;;9.03;;
71773;SDS011;59607;52.130;5.430;2023-07-22T05:11:20;13.93;;;9.38;;
71773;SDS011;59607;52.130;5.430;2023-07-22T05:13:50;18.60;;;10.23;;
71773;SDS011;59607;52.130;5.430;2023-07-22T05:16:23;15.70;;;9.65;;
71773;SDS011;59607;52.130;5.430;2023-07-22T05:18:49;19.48;;;10.18;;
71773;SDS011;59607;52.130;5.430;2023-07-22T05:21:16;16.07;;;9.57;;
71773;SDS011;59607;52.130;5.430;2023-07-22T05:23:43;16.55;;;10.35;;
71773;SDS011;59607;52.130;5.430;2023-07-22T05:26:13;17.90;;;10.00;;
71773;SDS011;59607;52.130;5.430;2023-07-22T05:28:40;17.50;;;9.50;;
71773;SDS011;59607;52.130;5.430;2023-07-22T05:31:07;13.48;;;9.60;;
71773;SDS011;59607;52.130;5.430;2023-07-22T05:33:35;16.77;;;9.43;;
71773;SDS011;59607;52.130;5.430;2023-07-22T05:36:03;13.32;;;9.57;;
71773;SDS011;59607;52.130;5.430;2023-07-22T05:38:34;19.63;;;10.40;;
71773;SDS011;59607;52.130;5.430;2023-07-22T05:41:01;16.70;;;9.70;;
71773;SDS011;59607;52.130;5.430;2023-07-22T05:43:27;17.85;;;10.40;;
71773;SDS011;59607;52.130;5.430;2023-07-22T05:45:59;16.60;;;10.50;;
71773;SDS011;59607;52.130;5.430;2023-07-22T05:48:26;18.83;;;9.75;;
71773;SDS011;59607;52.130;5.430;2023-07-22T05:50:56;16.52;;;10.55;;
71773;SDS011;59607;52.130;5.430;2023-07-22T05:53:22;21.17;;;10.75;;
71773;SDS011;59607;52.130;5.430;2023-07-22T05:55:49;20.25;;;11.05;;
71773;SDS011;59607;52.130;5.430;2023-07-22T05:58:16;19.53;;;10.57;;
71773;SDS011;59607;52.130;5.430;2023-07-22T06:00:46;21.70;;;10.73;;
71773;SDS011;59607;52.130;5.430;2023-07-22T06:03:15;17.33;;;10.77;;
71773;SDS011;59607;52.130;5.430;2023-07-22T06:05:48;17.00;;;10.35;;
71773;SDS011;59607;52.130;5.430;2023-07-22T06:08:15;16.73;;;10.23;;
71773;SDS011;59607;52.130;5.430;2023-07-22T06:10:44;20.07;;;10.13;;
71773;SDS011;59607;52.130;5.430;2023-07-22T06:13:12;15.40;;;9.95;;
71773;SDS011;59607;52.130;5.430;2023-07-22T06:15:39;17.08;;;10.35;;
71773;SDS011;59607;52.130;5.430;2023-07-22T06:18:08;20.55;;;11.68;;
71773;SDS011;59607;52.130;5.430;2023-07-22T06:20:40;18.73;;;10.20;;
71773;SDS011;59607;52.130;5.430;2023-07-22T06:23:07;19.60;;;10.40;;
71773;SDS011;59607;52.130;5.430;2023-07-22T06:25:39;14.30;;;9.95;;
71773;SDS011;59607;52.130;5.430;2023-07-22T06:28:06;18.13;;;10.65;;
71773;SDS011;59607;52.130;5.430;2023-07-22T06:30:32;23.33;;;11.98;;
71773;SDS011;59607;52.130;5.430;2023-07-22T06:33:02;18.48;;;10.57;;
71773;SDS011;59607;52.130;5.430;2023-07-22T06:35:29;17.20;;;9.97;;
71773;SDS011;59607;52.130;5.430;2023-07-22T06:37:55;16.42;;;9.85;;
71773;SDS011;59607;52.130;5.430;2023-07-22T06:40:23;15.70;;;9.85;;
71773;SDS011;59607;52.130;5.430;2023-07-22T06:42:54;13.50;;;10.48;;
71773;SDS011;59607;52.130;5.430;2023-07-22T06:45:20;18.17;;;10.98;;
71773;SDS011;59607;52.130;5.430;2023-07-22T06:47:58;20.80;;;11.63;;
71773;SDS011;59607;52.130;5.430;2023-07-22T06:50:33;13.18;;;9.10;;
71773;SDS011;59607;52.130;5.430;2023-07-22T06:53:00;16.65;;;10.32;;
71773;SDS011;59607;52.130;5.430;2023-07-22T06:55:28;18.05;;;11.55;;
71773;SDS011;59607;52.130;5.430;2023-07-22T06:57:59;16.25;;;10.55;;
71773;SDS011;59607;52.130;5.430;2023-07-22T07:00:29;14.77;;;10.57;;
71773;SDS011;59607;52.130;5.430;2023-07-22T07:02:58;16.48;;;10.13;;
71773;SDS011;59607;52.130;5.430;2023-07-22T07:05:25;15.60;;;10.40;;
71773;SDS011;59607;52.130;5.430;2023-07-22T07:07:55;18.40;;;11.15;;
71773;SDS011;59607;52.130;5.430;2023-07-22T07:10:22;16.48;;;10.73;;
71773;SDS011;59607;52.130;5.430;2023-07-22T07:12:48;13.00;;;9.97;;
71773;SDS011;59607;52.130;5.430;2023-07-22T07:15:15;14.95;;;9.50;;
71773;SDS011;59607;52.130;5.430;2023-07-22T07:17:47;20.23;;;10.35;;
71773;SDS011;59607;52.130;5.430;2023-07-22T07:20:14;16.05;;;10.02;;
71773;SDS011;59607;52.130;5.430;2023-07-22T07:22:43;16.65;;;10.25;;
71773;SDS011;59607;52.130;5.430;2023-07-22T07:25:10;16.23;;;9.97;;
71773;SDS011;59607;52.130;5.430;2023-07-22T07:27:37;15.82;;;9.88;;
71773;SDS011;59607;52.130;5.430;2023-07-22T07:30:07;16.48;;;10.32;;
71773;SDS011;59607;52.130;5.430;2023-07-22T07:32:37;15.63;;;9.60;;
71773;SDS011;59607;52.130;5.430;2023-07-22T07:35:08;17.50;;;9.73;;
71773;SDS011;59607;52.130;5.430;2023-07-22T07:37:38;19.07;;;10.43;;
71773;SDS011;59607;52.130;5.430;2023-07-22T07:40:05;19.33;;;10.15;;
71773;SDS011;59607;52.130;5.430;2023-07-22T07:42:48;15.40;;;10.20;;
71773;SDS011;59607;52.130;5.430;2023-07-22T07:45:16;15.70;;;10.02;;
71773;SDS011;59607;52.130;5.430;2023-07-22T07:47:46;13.27;;;9.15;;
71773;SDS011;59607;52.130;5.430;2023-07-22T07:50:12;17.07;;;9.37;;
71773;SDS011;59607;52.130;5.430;2023-07-22T07:52:59;10.63;;;8.85;;
71773;SDS011;59607;52.130;5.430;2023-07-22T07:55:25;17.75;;;9.10;;
71773;SDS011;59607;52.130;5.430;2023-07-22T07:57:52;13.63;;;9.45;;
71773;SDS011;59607;52.130;5.430;2023-07-22T08:00:21;17.13;;;8.95;;
71773;SDS011;59607;52.130;5.430;2023-07-22T08:02:49;13.43;;;8.90;;
71773;SDS011;59607;52.130;5.430;2023-07-22T08:05:15;16.55;;;7.95;;
71773;SDS011;59607;52.130;5.430;2023-07-22T08:07:46;11.18;;;7.78;;
71773;SDS011;59607;52.130;5.430;2023-07-22T08:10:13;11.95;;;7.25;;
71773;SDS011;59607;52.130;5.430;2023-07-22T08:12:39;8.68;;;7.55;;
71773;SDS011;59607;52.130;5.430;2023-07-22T08:15:06;15.20;;;8.20;;
71773;SDS011;59607;52.130;5.430;2023-07-22T08:17:37;12.73;;;7.82;;
71773;SDS011;59607;52.130;5.430;2023-07-22T08:20:04;10.63;;;7.53;;
71773;SDS011;59607;52.130;5.430;2023-07-22T08:22:32;10.38;;;8.10;;
71773;SDS011;59607;52.130;5.430;2023-07-22T08:25:02;10.82;;;6.88;;
71773;SDS011;59607;52.130;5.430;2023-07-22T08:27:32;7.33;;;6.60;;
71773;SDS011;59607;52.130;5.430;2023-07-22T08:30:05;7.53;;;6.78;;
71773;SDS011;59607;52.130;5.430;2023-07-22T08:32:32;8.77;;;7.22;;
71773;SDS011;59607;52.130;5.430;2023-07-22T08:35:13;9.68;;;6.80;;
71773;SDS011;59607;52.130;5.430;2023-07-22T08:37:42;8.57;;;6.90;;
71773;SDS011;59607;52.130;5.430;2023-07-22T08:40:08;9.87;;;6.17;;
71773;SDS011;59607;52.130;5.430;2023-07-22T08:42:36;8.05;;;5.78;;
71773;SDS011;59607;52.130;5.430;2023-07-22T08:45:04;9.05;;;6.05;;
71773;SDS011;59607;52.130;5.430;2023-07-22T08:47:38;9.07;;;5.70;;
71773;SDS011;59607;52.130;5.430;2023-07-22T08:50:20;8.07;;;6.28;;
71773;SDS011;59607;52.130;5.430;2023-07-22T08:52:48;7.57;;;5.87;;
71773;SDS011;59607;52.130;5.430;2023-07-22T08:55:18;8.45;;;6.20;;
71773;SDS011;59607;52.130;5.430;2023-07-22T08:57:45;14.50;;;6.53;;
71773;SDS011;59607;52.130;5.430;2023-07-22T09:00:24;12.55;;;6.65;;
71773;SDS011;59607;52.130;5.430;2023-07-22T09:02:51;11.93;;;6.28;;
71773;SDS011;59607;52.130;5.430;2023-07-22T09:05:21;7.97;;;5.80;;
71773;SDS011;59607;52.130;5.430;2023-07-22T09:07:48;6.28;;;5.30;;
71773;SDS011;59607;52.130;5.430;2023-07-22T09:10:19;7.25;;;4.95;;
71773;SDS011;59607;52.130;5.430;2023-07-22T09:12:50;8.93;;;5.28;;
71773;SDS011;59607;52.130;5.430;2023-07-22T09:15:20;7.93;;;5.57;;
71773;SDS011;59607;52.130;5.430;2023-07-22T09:17:54;11.73;;;5.67;;
71773;SDS011;59607;52.130;5.430;2023-07-22T09:20:31;7.40;;;4.28;;
71773;SDS011;59607;52.130;5.430;2023-07-22T09:22:58;4.53;;;3.40;;
71773;SDS011;59607;52.130;5.430;2023-07-22T09:25:40;5.60;;;3.42;;
71773;SDS011;59607;52.130;5.430;2023-07-22T09:28:14;6.40;;;3.88;;
71773;SDS011;59607;52.130;5.430;2023-07-22T09:30:40;6.07;;;3.20;;
71773;SDS011;59607;52.130;5.430;2023-07-22T09:33:21;5.70;;;3.72;;
71773;SDS011;59607;52.130;5.430;2023-07-22T09:35:52;7.47;;;3.95;;
71773;SDS011;59607;52.130;5.430;2023-07-22T09:38:25;8.10;;;3.70;;
71773;SDS011;59607;52.130;5.430;2023-07-22T09:40:55;4.03;;;3.40;;
71773;SDS011;59607;52.130;5.430;2023-07-22T09:43:22;5.40;;;3.20;;
71773;SDS011;59607;52.130;5.430;2023-07-22T09:45:52;5.68;;;3.80;;
71773;SDS011;59607;52.130;5.430;2023-07-22T09:48:20;5.32;;;3.47;;
71773;SDS011;59607;52.130;5.430;2023-07-22T09:51:00;4.72;;;3.33;;
71773;SDS011;59607;52.130;5.430;2023-07-22T09:53:27;4.30;;;3.15;;
71773;SDS011;59607;52.130;5.430;2023-07-22T09:55:53;7.83;;;3.73;;
71773;SDS011;59607;52.130;5.430;2023-07-22T09:58:23;4.85;;;3.22;;
71773;SDS011;59607;52.130;5.430;2023-07-22T10:00:55;4.72;;;3.05;;
71773;SDS011;59607;52.130;5.430;2023-07-22T10:03:29;4.63;;;3.50;;
71773;SDS011;59607;52.130;5.430;2023-07-22T10:06:15;6.13;;;3.80;;
71773;SDS011;59607;52.130;5.430;2023-07-22T10:08:43;5.50;;;3.63;;
71773;SDS011;59607;52.130;5.430;2023-07-22T10:11:17;5.97;;;3.60;;
71773;SDS011;59607;52.130;5.430;2023-07-22T10:13:45;4.97;;;3.15;;
71773;SDS011;59607;52.130;5.430;2023-07-22T10:16:20;4.38;;;3.00;;
71773;SDS011;59607;52.130;5.430;2023-07-22T10:18:48;4.30;;;2.95;;
71773;SDS011;59607;52.130;5.430;2023-07-22T10:21:29;5.27;;;2.87;;
71773;SDS011;59607;52.130;5.430;2023-07-22T10:24:00;7.22;;;3.60;;
71773;SDS011;59607;52.130;5.430;2023-07-22T10:26:30;4.97;;;3.40;;
71773;SDS011;59607;52.130;5.430;2023-07-22T10:29:13;6.22;;;2.67;;
71773;SDS011;59607;52.130;5.430;2023-07-22T10:31:46;6.40;;;3.30;;
71773;SDS011;59607;52.130;5.430;2023-07-22T10:34:28;21.70;;;2.87;;
71773;SDS011;59607;52.130;5.430;2023-07-22T10:36:58;7.57;;;3.17;;
71773;SDS011;59607;52.130;5.430;2023-07-22T10:39:46;3.45;;;2.95;;
71773;SDS011;59607;52.130;5.430;2023-07-22T10:42:24;7.00;;;3.38;;
71773;SDS011;59607;52.130;5.430;2023-07-22T10:44:53;2.50;;;2.30;;
71773;SDS011;59607;52.130;5.430;2023-07-22T10:50:48;3.10;;;2.28;;
71773;SDS011;59607;52.130;5.430;2023-07-22T10:53:47;3.63;;;2.15;;
71773;SDS011;59607;52.130;5.430;2023-07-22T10:56:43;5.95;;;2.67;;
71773;SDS011;59607;52.130;5.430;2023-07-22T10:59:13;6.13;;;2.70;;
71773;SDS011;59607;52.130;5.430;2023-07-22T11:01:45;3.87;;;2.57;;
71773;SDS011;59607;52.130;5.430;2023-07-22T11:07:05;4.68;;;2.17;;
71773;SDS011;59607;52.130;5.430;2023-07-22T11:09:35;3.95;;;1.85;;
71773;SDS011;59607;52.130;5.430;2023-07-22T11:12:24;2.50;;;1.75;;
71773;SDS011;59607;52.130;5.430;2023-07-22T11:15:33;2.03;;;1.40;;
71773;SDS011;59607;52.130;5.430;2023-07-22T11:17:59;4.88;;;1.30;;
71773;SDS011;59607;52.130;5.430;2023-07-22T11:20:52;4.07;;;1.70;;
71773;SDS011;59607;52.130;5.430;2023-07-22T11:23:19;2.45;;;1.50;;
71773;SDS011;59607;52.130;5.430;2023-07-22T11:25:45;2.45;;;2.13;;
71773;SDS011;59607;52.130;5.430;2023-07-22T11:28:18;3.13;;;2.00;;
71773;SDS011;59607;52.130;5.430;2023-07-22T11:30:48;4.22;;;1.80;;
71773;SDS011;59607;52.130;5.430;2023-07-22T11:33:24;3.17;;;2.42;;
71773;SDS011;59607;52.130;5.430;2023-07-22T11:35:50;6.25;;;2.22;;
71773;SDS011;59607;52.130;5.430;2023-07-22T11:38:32;3.97;;;1.90;;
71773;SDS011;59607;52.130;5.430;2023-07-22T11:41:04;2.07;;;1.67;;
71773;SDS011;59607;52.130;5.430;2023-07-22T11:43:34;2.90;;;1.58;;
71773;SDS011;59607;52.130;5.430;2023-07-22T11:46:07;2.58;;;1.95;;
71773;SDS011;59607;52.130;5.430;2023-07-22T11:48:33;3.83;;;2.10;;
71773;SDS011;59607;52.130;5.430;2023-07-22T11:51:03;2.58;;;1.70;;
71773;SDS011;59607;52.130;5.430;2023-07-22T11:53:34;3.70;;;1.60;;
71773;SDS011;59607;52.130;5.430;2023-07-22T11:56:00;5.60;;;2.40;;
71773;SDS011;59607;52.130;5.430;2023-07-22T11:58:32;3.85;;;1.80;;
71773;SDS011;59607;52.130;5.430;2023-07-22T12:01:10;5.32;;;2.00;;
71773;SDS011;59607;52.130;5.430;2023-07-22T12:03:41;2.92;;;1.98;;
71773;SDS011;59607;52.130;5.430;2023-07-22T12:06:12;7.10;;;2.07;;
71773;SDS011;59607;52.130;5.430;2023-07-22T12:08:43;3.17;;;1.50;;
71773;SDS011;59607;52.130;5.430;2023-07-22T12:11:19;3.50;;;1.65;;
71773;SDS011;59607;52.130;5.430;2023-07-22T12:13:47;3.53;;;1.95;;
71773;SDS011;59607;52.130;5.430;2023-07-22T12:16:41;2.97;;;1.95;;
71773;SDS011;59607;52.130;5.430;2023-07-22T12:19:08;3.17;;;1.63;;
71773;SDS011;59607;52.130;5.430;2023-07-22T12:21:45;4.88;;;2.10;;
71773;SDS011;59607;52.130;5.430;2023-07-22T12:24:13;2.83;;;1.67;;
71773;SDS011;59607;52.130;5.430;2023-07-22T12:26:46;4.47;;;1.48;;
71773;SDS011;59607;52.130;5.430;2023-07-22T12:29:12;3.50;;;1.80;;
71773;SDS011;59607;52.130;5.430;2023-07-22T12:31:39;2.77;;;1.57;;
71773;SDS011;59607;52.130;5.430;2023-07-22T12:34:06;3.45;;;1.65;;
71773;SDS011;59607;52.130;5.430;2023-07-22T12:36:41;5.55;;;1.95;;
71773;SDS011;59607;52.130;5.430;2023-07-22T12:39:08;3.92;;;1.25;;
71773;SDS011;59607;52.130;5.430;2023-07-22T12:41:42;4.65;;;1.75;;
71773;SDS011;59607;52.130;5.430;2023-07-22T12:44:24;4.53;;;1.50;;
71773;SDS011;59607;52.130;5.430;2023-07-22T12:47:04;3.60;;;1.77;;
71773;SDS011;59607;52.130;5.430;2023-07-22T12:49:32;2.83;;;1.83;;
71773;SDS011;59607;52.130;5.430;2023-07-22T12:52:01;3.75;;;1.48;;
71773;SDS011;59607;52.130;5.430;2023-07-22T12:54:30;3.30;;;1.80;;
71773;SDS011;59607;52.130;5.430;2023-07-22T12:57:11;3.07;;;1.50;;
71773;SDS011;59607;52.130;5.430;2023-07-22T12:59:43;4.55;;;2.10;;
71773;SDS011;59607;52.130;5.430;2023-07-22T13:02:16;4.28;;;1.77;;
71773;SDS011;59607;52.130;5.430;2023-07-22T13:04:46;5.22;;;2.00;;
71773;SDS011;59607;52.130;5.430;2023-07-22T13:07:12;3.78;;;2.00;;
71773;SDS011;59607;52.130;5.430;2023-07-22T13:09:39;2.97;;;1.80;;
71773;SDS011;59607;52.130;5.430;2023-07-22T13:12:11;3.38;;;2.28;;
71773;SDS011;59607;52.130;5.430;2023-07-22T13:14:38;3.97;;;2.60;;
71773;SDS011;59607;52.130;5.430;2023-07-22T13:17:08;4.25;;;2.72;;
71773;SDS011;59607;52.130;5.430;2023-07-22T13:19:37;4.22;;;3.25;;
71773;SDS011;59607;52.130;5.430;2023-07-22T13:22:03;5.77;;;3.00;;
71773;SDS011;59607;52.130;5.430;2023-07-22T13:24:38;2.95;;;2.60;;
71773;SDS011;59607;52.130;5.430;2023-07-22T13:27:06;5.57;;;3.10;;
71773;SDS011;59607;52.130;5.430;2023-07-22T13:29:42;3.97;;;3.30;;
71773;SDS011;59607;52.130;5.430;2023-07-22T13:32:09;4.53;;;3.13;;
71773;SDS011;59607;52.130;5.430;2023-07-22T13:34:50;4.13;;;2.13;;
71773;SDS011;59607;52.130;5.430;2023-07-22T13:37:23;4.32;;;2.20;;
71773;SDS011;59607;52.130;5.430;2023-07-22T13:39:49;4.40;;;1.90;;
71773;SDS011;59607;52.130;5.430;2023-07-22T13:42:19;5.53;;;2.38;;
71773;SDS011;59607;52.130;5.430;2023-07-22T13:44:48;2.55;;;2.05;;
71773;SDS011;59607;52.130;5.430;2023-07-22T13:47:15;6.67;;;1.80;;
71773;SDS011;59607;52.130;5.430;2023-07-22T13:49:45;3.47;;;1.63;;
71773;SDS011;59607;52.130;5.430;2023-07-22T13:52:22;2.80;;;1.40;;
71773;SDS011;59607;52.130;5.430;2023-07-22T13:54:53;4.80;;;1.40;;
71773;SDS011;59607;52.130;5.430;2023-07-22T13:57:20;2.50;;;1.40;;
71773;SDS011;59607;52.130;5.430;2023-07-22T14:00:00;1.97;;;1.37;;
71773;SDS011;59607;52.130;5.430;2023-07-22T14:02:37;4.15;;;1.20;;
71773;SDS011;59607;52.130;5.430;2023-07-22T14:05:04;2.08;;;1.05;;
71773;SDS011;59607;52.130;5.430;2023-07-22T14:07:35;4.65;;;1.02;;
71773;SDS011;59607;52.130;5.430;2023-07-22T14:10:05;2.10;;;1.23;;
71773;SDS011;59607;52.130;5.430;2023-07-22T14:12:32;2.47;;;1.27;;
71773;SDS011;59607;52.130;5.430;2023-07-22T14:15:11;2.08;;;1.30;;
71773;SDS011;59607;52.130;5.430;2023-07-22T14:17:45;3.28;;;1.27;;
71773;SDS011;59607;52.130;5.430;2023-07-22T14:20:12;3.50;;;2.08;;
71773;SDS011;59607;52.130;5.430;2023-07-22T14:22:47;2.90;;;1.50;;
71773;SDS011;59607;52.130;5.430;2023-07-22T14:25:16;2.47;;;1.30;;
71773;SDS011;59607;52.130;5.430;2023-07-22T14:27:50;3.30;;;1.08;;
71773;SDS011;59607;52.130;5.430;2023-07-22T14:30:17;3.80;;;1.10;;
71773;SDS011;59607;52.130;5.430;2023-07-22T14:32:58;2.85;;;0.90;;
71773;SDS011;59607;52.130;5.430;2023-07-22T14:35:33;2.65;;;1.05;;
71773;SDS011;59607;52.130;5.430;2023-07-22T14:38:00;2.97;;;1.10;;
71773;SDS011;59607;52.130;5.430;2023-07-22T14:40:28;3.28;;;1.27;;
71773;SDS011;59607;52.130;5.430;2023-07-22T14:42:56;2.45;;;1.20;;
71773;SDS011;59607;52.130;5.430;2023-07-22T14:45:23;2.83;;;1.00;;
71773;SDS011;59607;52.130;5.430;2023-07-22T14:47:49;2.10;;;1.02;;
71773;SDS011;59607;52.130;5.430;2023-07-22T14:50:25;3.70;;;1.50;;
71773;SDS011;59607;52.130;5.430;2023-07-22T14:52:51;3.72;;;1.15;;
71773;SDS011;59607;52.130;5.430;2023-07-22T14:55:24;2.22;;;0.70;;
71773;SDS011;59607;52.130;5.430;2023-07-22T14:57:50;2.85;;;0.93;;
71773;SDS011;59607;52.130;5.430;2023-07-22T15:00:20;3.17;;;1.10;;
71773;SDS011;59607;52.130;5.430;2023-07-22T15:02:47;1.40;;;0.83;;
71773;SDS011;59607;52.130;5.430;2023-07-22T15:05:14;2.45;;;1.05;;
71773;SDS011;59607;52.130;5.430;2023-07-22T15:07:40;3.15;;;1.30;;